新葡京
新普京
新普京
新普京
avhome成人影音網
夢工廠
ho-av商城
藏經閣
300AVI
夜世界情趣精品店
情趣用品 免費線上A片下載
永利
马
马
發新話題
 

汽車專區

    標題 作者 /回復/查看 最後發表
  版塊主題
  資訊情報 [06-10] 打破 iRENT 單一局面,Zipcar 汽車共享平台進駐台北(12p) e48585 2017-6-10 0 / 3 2017-6-10 07:07 by e48585
  資訊情報 [06-10] 換上小排氣量引擎 VOLKSWAGEN Golf 小改款 89萬8即可入手(10p) e48585 2017-6-10 0 / 3 2017-6-10 07:03 by e48585
  資訊情報 [06-09] 日規雙生車改款資訊曝光 台灣 Toyota RAV4 「渦輪」有望上身? [3P] Schirm 2017-6-9 0 / 14 2017-6-9 23:50 by Schirm
  資訊情報 [06-09] Honda Civic Type R 美規價格未定 公益拍賣價已達 20 萬美金 [1P] Schirm 2017-6-9 0 / 9 2017-6-9 23:49 by Schirm
  資訊情報 [06-08] 國產七人座 MPV Kia Carens 改款上市 [1P] Schirm 2017-6-8 1 / 13 2017-6-9 07:59 by Yu1Hatan0
  資訊情報 [06-09] 只剩安全設備能比?國內七人座MPV大盤點(8p) e48585 2017-6-9 0 / 6 2017-6-9 07:52 by e48585
  資訊情報 [06-09] 全新SUBARU XV獨孤求勝可要真實面對戰雲密佈!(6p) e48585 2017-6-9 0 / 2 2017-6-9 07:45 by e48585
  資訊情報 [06-09] 新台幣62.8萬元起!SUZUKI Ignis全球戰略小車正式上市(6p) e48585 2017-6-9 0 / 2 2017-6-9 07:40 by e48585
  資訊情報 [06-09] 回歸務實房車本色!SKODA Octavia 1.0TSI試駕報導(10p) e48585 2017-6-9 0 / 4 2017-6-9 07:35 by e48585
  資訊情報 [06-09] 276萬起跳!M-BENZ E-Class Coupe全新發表再度掀起豪華轎跑級距腥風血雨!(14p) e48585 2017-6-9 0 / 8 2017-6-9 07:03 by e48585
  資訊情報 [06-08] 3 年打造 8,000 輛 Lamborghini 這款入門超跑有機會創紀錄 [2P] Schirm 2017-6-8 0 / 11 2017-6-8 23:47 by Schirm
  資訊情報 [06-08] Toyota 全新車載系統出爐 [3P] Schirm 2017-6-8 0 / 13 2017-6-8 23:46 by Schirm
  資訊情報 [06-08] 全新 Subaru XV 台灣正式登場 [4P] Schirm 2017-6-8 0 / 6 2017-6-8 23:44 by Schirm
  資訊情報 [06-08] 李小龍「發聲」介紹 BMW M4 GTS [3P] Schirm 2017-6-8 0 / 10 2017-6-8 20:40 by Schirm
  資訊情報 [06-06] 沒有柴油引擎 Toyota 依然能讓 C-HR 在歐洲成為熱銷車款 [2P] Schirm 2017-6-6 1 / 13 2017-6-8 08:07 by Yu1Hatan0
  資訊情報 [06-08] 等不及了!車迷自行設計入門掀背JAGUAR過乾癮(5p) e48585 2017-6-8 0 / 3 2017-6-8 07:22 by e48585
  資訊情報 [06-08] 走入歷史!最後一輛CHEVROLET SS於澳洲工廠正式下線(5p) e48585 2017-6-8 0 / 4 2017-6-8 07:14 by e48585
  資訊情報 [06-08] 誰說德國佬不改裝美式肌肉車?Schropp Tuning打造807匹FORD Mustang SF600R(9p) e48585 2017-6-8 0 / 3 2017-6-8 07:04 by e48585
  資訊情報 [06-08] 越老越有價!2010年式 LAMBORGHINI Murcielago SV比Aventador還貴!(11p) e48585 2017-6-8 0 / 3 2017-6-8 06:51 by e48585
  資訊情報 [06-08] 最適合三代出遊的MPV,KIA Caren小改款全車系標配六安,79萬9起(15p) e48585 2017-6-8 0 / 1 2017-6-8 06:41 by e48585
  資訊情報 [06-04] 賓士計劃生產全新四缸動力系統 [3P] Schirm 2017-6-4 1 / 15 2017-6-7 20:53 by Yu1Hatan0
  資訊情報 [06-06] 力拼 Toyota Prius Hyundai Ioniq 售價堪稱油電車最殺 [1P] Schirm 2017-6-6 1 / 10 2017-6-7 08:47 by Yu1Hatan0
  資訊情報 [06-07] 原廠舉辦AUDI Q2 Challenge,旅行風Q2帥到掉渣!(7p) e48585 2017-6-7 0 / 2 2017-6-7 08:27 by e48585
  資訊情報 [06-07] FERRARI旗艦馬王LaFerrari後繼車長這樣?(6p) e48585 2017-6-7 0 / 11 2017-6-7 07:54 by e48585
  資訊情報 [06-07] 東協新興市場SUV爭霸戰(一):來自中國的金錢炸彈!(10p) e48585 2017-6-7 0 / 3 2017-6-7 07:48 by e48585
  資訊情報 [06-07] 新版ProPilot半自動駕駛上身,2018年式INFINITI Q50日本量產中!(5p) e48585 2017-6-7 0 / 2 2017-6-7 06:48 by e48585
  資訊情報 [06-07] 更帥、更快、更安全!HYUNDAI新世代節能車IONIQ百萬以下強勢登場!(18p) e48585 2017-6-7 0 / 2 2017-6-7 06:44 by e48585
  資訊情報 [06-05] 轉子引擎 50 周年紀念 Skyactiv 傳承造車精神 [3P] Schirm 2017-6-5 1 / 15 2017-6-6 08:05 by Yu1Hatan0
  資訊情報 [06-06] 全新小改MERCEDES-BENZ GLA車系澳洲開賣才台幣132萬起!(6p) e48585 2017-6-6 0 / 5 2017-6-6 07:25 by e48585
  資訊情報 [06-06] 成就達成!第8,000輛義式蠻牛Huracan正式下線!(6p) e48585 2017-6-6 0 / 4 2017-6-6 07:14 by e48585
  資訊情報 [06-06] 更狂野的英國豹!德系改裝廠AC Schnitzer推出F-PACE的專屬改裝套件(7p) e48585 2017-6-6 0 / 3 2017-6-6 07:05 by e48585
  資訊情報 [06-06] 係金ㄟ?全新小改NISSAN X-Trail將導入半自動駕駛科技...那台灣呢?(5p) e48585 2017-6-6 0 / 4 2017-6-6 06:59 by e48585
  資訊情報 [06-06] 全球首現,LEXUS最入門LS 350突現身!(8p) e48585 2017-6-6 0 / 5 2017-6-6 06:56 by e48585
  資訊情報 [06-04] Skoda計劃推出電動跑車? 以110 R為靈感 [3P] Schirm 2017-6-4 1 / 9 2017-6-5 10:05 by Yu1Hatan0
  資訊情報 [06-05] 全新世代Audi Q5/SQ5即日開放預售!Audi quattro智慧型四輪傳動征服全地形(6p) e48585 2017-6-5 0 / 4 2017-6-5 08:07 by e48585
發新話題
查看 排序方式  
夜世界情趣精品店 japorndl.com
ho-av商城 滔精網
1495